Time;durP1;ratioP1;P1;durP2;ratioP2;P2;SDS_P1;SDS_P2;PMS_P1;PMS_P2;Temp;Humidity;BMP_temperature;BMP_pressure;BME280_temperature;BME280_humidity;BME280_pressure;Samples;Min_cycle;Max_cycle;Signal;HPM_P1;HPM_P2
2022/09/30 00:08:49;;;;;;;0.80;0.50;;;15.50;49.80;;;;;;21175487;28;20093;-61
2022/09/30 00:18:53;;;;;;;2.50;0.60;;;15.40;46.70;;;;;;21173688;28;20083;-58
2022/09/30 00:28:56;;;;;;;;;;;15.30;45.50;;;;;;21173876;28;20089;-58
2022/09/30 00:38:57;;;;;;;2.22;0.50;;;15.20;45.10;;;;;;21174870;28;19920;-59
2022/09/30 00:49:06;;;;;;;1.48;0.60;;;15.00;45.60;;;;;;21172405;28;20059;-60
2022/09/30 00:59:13;;;;;;;1.85;0.70;;;15.00;45.80;;;;;;21170828;28;20047;-57
2022/09/30 01:09:15;;;;;;;1.52;0.50;;;15.00;46.10;;;;;;21170699;28;20484;-57
2022/09/30 01:19:35;;;;;;;0.60;0.40;;;14.80;46.70;;;;;;21152060;28;20047;-61
2022/09/30 01:30:05;;;;;;;1.48;0.47;;;14.70;47.20;;;;;;21169058;28;20043;-60
2022/09/30 01:40:21;;;;;;;1.45;0.40;;;14.80;46.90;;;;;;21168151;28;20416;-61
2022/09/30 01:50:32;;;;;;;0.90;0.40;;;14.70;47.30;;;;;;21167746;28;20052;-59
2022/09/30 02:00:38;;;;;;;1.08;0.60;;;14.70;47.30;;;;;;21165166;28;20097;-60
2022/09/30 02:10:56;;;;;;;1.15;0.50;;;14.60;47.40;;;;;;21165898;28;20072;-61
2022/09/30 02:21:02;;;;;;;2.65;0.73;;;14.70;46.70;;;;;;21165453;28;20048;-56
2022/09/30 02:31:07;;;;;;;3.15;0.50;;;14.70;46.60;;;;;;21163836;28;20044;-57
2022/09/30 02:41:14;;;;;;;1.17;0.50;;;14.60;46.80;;;;;;21145389;28;20051;-60
2022/09/30 02:51:58;;;;;;;2.28;0.57;;;14.50;46.40;;;;;;21163216;28;20046;-60
2022/09/30 03:01:59;;;;;;;0.50;0.38;;;14.50;46.60;;;;;;20739306;28;20045;-60
2022/09/30 03:13:03;;;;;;;1.27;0.50;;;14.40;46.70;;;;;;20738452;28;20141;-60
2022/09/30 03:23:38;;;;;;;0.65;0.50;;;14.40;46.70;;;;;;20578779;28;20073;-60
2022/09/30 03:34:20;;;;;;;1.65;0.63;;;14.50;46.40;;;;;;20716992;28;20092;-60
2022/09/30 03:44:35;;;;;;;1.23;0.50;;;14.20;47.00;;;;;;20916303;28;20061;-61
2022/09/30 03:54:46;;;;;;;2.90;0.70;;;14.20;47.20;;;;;;21084017;28;20055;-61
2022/09/30 04:04:48;;;;;;;2.50;0.73;;;14.20;47.80;;;;;;21089597;28;20052;-62
2022/09/30 04:14:49;;;;;;;4.35;0.63;;;14.20;48.20;;;;;;21091024;28;20048;-61
2022/09/30 04:24:52;;;;;;;3.15;0.70;;;14.10;48.20;;;;;;21089403;28;20059;-57
2022/09/30 04:34:54;;;;;;;3.88;0.95;;;14.20;48.10;;;;;;21087542;28;20051;-59
2022/09/30 04:44:57;;;;;;;3.10;0.93;;;14.10;48.90;;;;;;21135505;28;20051;-60
2022/09/30 04:54:59;;;;;;;2.25;0.80;;;14.10;48.50;;;;;;21171219;28;20047;-60
2022/09/30 05:05:01;;;;;;;2.80;1.20;;;14.10;49.30;;;;;;21169525;28;20494;-58
2022/09/30 05:15:04;;;;;;;5.32;1.90;;;13.90;49.80;;;;;;21169107;28;20104;-57
2022/09/30 05:25:07;;;;;;;6.47;2.05;;;13.90;50.10;;;;;;21169067;28;20074;-57
2022/09/30 05:35:10;;;;;;;3.92;1.58;;;13.80;50.90;;;;;;21167557;28;20047;-57
2022/09/30 05:45:13;;;;;;;2.70;1.20;;;13.90;51.50;;;;;;21166335;28;20056;-58
2022/09/30 05:55:16;;;;;;;4.68;1.60;;;13.70;51.30;;;;;;21148486;28;20056;-58
2022/09/30 06:05:18;;;;;;;6.10;2.33;;;13.70;51.40;;;;;;21165656;28;20150;-56
2022/09/30 06:15:20;;;;;;;4.97;1.90;;;13.60;52.00;;;;;;21164998;28;20501;-59
2022/09/30 06:25:22;;;;;;;8.10;2.05;;;13.60;52.30;;;;;;21165812;28;20513;-57
2022/09/30 06:35:25;;;;;;;7.50;2.03;;;13.50;53.10;;;;;;21163920;28;20401;-57
2022/09/30 06:45:28;;;;;;;6.85;2.85;;;13.50;53.00;;;;;;21163726;28;20048;-56
2022/09/30 06:55:29;;;;;;;9.15;3.22;;;13.80;52.60;;;;;;21163514;28;20047;-57
2022/09/30 07:05:32;;;;;;;12.32;3.88;;;14.00;51.80;;;;;;21179702;28;20052;-58
2022/09/30 07:15:34;;;;;;;10.85;3.30;;;14.00;51.40;;;;;;21179258;28;20047;-58
2022/09/30 07:25:36;;;;;;;9.30;2.92;;;14.20;51.20;;;;;;21179177;28;20116;-60
2022/09/30 07:35:38;;;;;;;12.10;3.75;;;14.40;51.10;;;;;;21178176;28;20531;-59
2022/09/30 07:45:40;;;;;;;7.28;2.58;;;14.60;50.40;;;;;;21127147;28;20454;-60
2022/09/30 07:55:41;;;;;;;6.63;2.05;;;16.00;51.30;;;;;;21047682;28;20132;-56
2022/09/30 08:05:44;;;;;;;6.28;2.33;;;17.70;44.90;;;;;;21046475;28;20055;-57
2022/09/30 08:15:46;;;;;;;9.75;1.60;;;18.40;42.80;;;;;;21049543;28;20068;-57
2022/09/30 08:25:48;;;;;;;5.35;1.50;;;18.80;41.70;;;;;;21044677;28;20051;-61
2022/09/30 08:35:49;;;;;;;6.95;1.10;;;19.10;40.60;;;;;;21008660;28;20055;-61
2022/09/30 08:45:57;;;;;;;2.28;1.20;;;19.30;40.10;;;;;;21003258;28;20053;-61
2022/09/30 08:56:01;;;;;;;4.53;1.40;;;19.20;39.80;;;;;;21003464;28;20130;-63
2022/09/30 09:06:24;;;;;;;8.38;2.35;;;19.50;39.40;;;;;;21011343;28;20052;-60
2022/09/30 09:16:44;;;;;;;3.33;1.30;;;19.50;39.50;;;;;;21066845;28;20045;-57
2022/09/30 09:26:48;;;;;;;4.30;1.63;;;18.50;39.80;;;;;;21008707;28;20044;-58
2022/09/30 09:38:23;;;;;;;4.50;1.47;;;17.70;42.00;;;;;;20998796;28;20041;-60
2022/09/30 09:47:51;;;;;;;5.18;1.60;;;17.70;42.20;;;;;;20997415;28;20088;-57
2022/09/30 09:58:14;;;;;;;6.93;1.52;;;17.50;42.20;;;;;;20997138;28;20113;-63
2022/09/30 10:08:19;;;;;;;3.83;1.80;;;19.20;41.30;;;;;;20996226;28;20498;-63
2022/09/30 10:18:34;;;;;;;3.55;1.48;;;19.70;39.20;;;;;;20997575;28;20410;-59
2022/09/30 10:28:56;;;;;;;3.45;1.50;;;20.10;38.10;;;;;;20994440;28;20109;-59
2022/09/30 10:39:08;;;;;;;3.58;1.33;;;20.20;37.80;;;;;;20994537;28;20076;-60
2022/09/30 10:49:32;;;;;;;1.90;1.00;;;19.80;37.90;;;;;;20994388;28;20500;-61
2022/09/30 10:59:37;;;;;;;3.45;0.82;;;20.20;37.50;;;;;;20994803;28;20451;-60
2022/09/30 11:10:15;;;;;;;2.50;0.67;;;19.20;37.70;;;;;;20992772;28;20071;-60
2022/09/30 11:20:32;;;;;;;5.38;0.60;;;19.00;37.70;;;;;;20970614;28;20132;-60
2022/09/30 11:31:11;;;;;;;1.17;0.63;;;18.90;36.90;;;;;;20991227;28;20060;-59
2022/09/30 11:41:31;;;;;;;2.58;0.50;;;19.10;36.50;;;;;;20992783;28;20048;-57
2022/09/30 11:51:46;;;;;;;1.10;0.50;;;19.20;35.90;;;;;;21005500;28;20048;-60
2022/09/30 12:01:51;;;;;;;0.80;0.43;;;19.30;35.20;;;;;;21006947;28;20090;-60
2022/09/30 12:12:02;;;;;;;1.27;0.77;;;19.50;34.70;;;;;;21005967;28;20045;-61
2022/09/30 12:22:13;;;;;;;1.00;0.50;;;19.70;34.70;;;;;;21005963;28;20052;-61
2022/09/30 12:32:33;;;;;;;1.45;0.70;;;19.70;34.80;;;;;;21005092;28;20071;-61
2022/09/30 12:42:47;;;;;;;4.78;1.00;;;19.70;34.60;;;;;;21003640;28;20070;-62
2022/09/30 12:52:49;;;;;;;2.15;0.90;;;20.00;34.70;;;;;;21004023;28;20131;-59
2022/09/30 13:02:58;;;;;;;1.37;0.50;;;19.70;34.90;;;;;;21003333;28;20131;-62
2022/09/30 13:13:18;;;;;;;2.80;0.80;;;20.10;34.40;;;;;;21001942;28;20045;-63
2022/09/30 13:23:39;;;;;;;1.75;0.75;;;20.00;33.90;;;;;;21000918;28;20461;-62
2022/09/30 13:33:45;;;;;;;1.58;0.75;;;20.10;34.30;;;;;;20999997;28;20546;-59
2022/09/30 13:43:49;;;;;;;2.20;0.73;;;20.50;33.30;;;;;;20998241;28;20520;-61
2022/09/30 13:53:55;;;;;;;2.63;0.70;;;20.70;33.20;;;;;;20997858;28;20044;-60
2022/09/30 14:04:05;;;;;;;2.13;0.90;;;20.70;33.50;;;;;;20996944;28;20048;-62
2022/09/30 14:14:32;;;;;;;0.65;0.40;;;20.70;33.10;;;;;;20995665;28;20094;-63
2022/09/30 14:24:36;;;;;;;1.42;0.70;;;20.80;34.00;;;;;;20997139;28;20048;-58
2022/09/30 14:34:40;;;;;;;1.63;0.70;;;20.90;33.80;;;;;;20995631;28;20469;-57
2022/09/30 14:44:42;;;;;;;1.30;0.60;;;20.70;33.90;;;;;;20994917;28;20079;-61
2022/09/30 14:54:46;;;;;;;2.22;0.60;;;20.70;33.70;;;;;;20995539;28;20052;-61
2022/09/30 15:04:50;;;;;;;1.15;0.50;;;20.80;33.60;;;;;;20994010;28;20131;-58
2022/09/30 15:14:53;;;;;;;0.90;0.55;;;20.80;33.50;;;;;;20994311;28;20056;-60
2022/09/30 15:24:56;;;;;;;;;;;20.80;33.60;;;;;;21006101;28;20083;-64
2022/09/30 15:35:11;;;;;;;2.53;0.82;;;20.90;36.70;;;;;;21046630;28;20009;-64
2022/09/30 15:45:19;;;;;;;3.22;0.75;;;21.50;34.70;;;;;;21012128;28;20083;-61
2022/09/30 15:55:36;;;;;;;1.27;0.50;;;21.60;33.60;;;;;;21016247;28;20143;-61
2022/09/30 16:05:38;;;;;;;0.77;0.50;;;21.60;33.60;;;;;;21007612;28;20175;-64
2022/09/30 16:15:39;;;;;;;0.82;0.52;;;21.70;33.50;;;;;;21005687;28;20049;-62
2022/09/30 16:25:41;;;;;;;2.10;0.70;;;21.60;33.70;;;;;;21005483;28;20381;-64
2022/09/30 16:35:44;;;;;;;1.30;0.60;;;21.50;34.20;;;;;;21003614;28;20416;-74
2022/09/30 16:45:45;;;;;;;1.10;0.70;;;21.60;33.80;;;;;;21003796;28;20532;-62
2022/09/30 16:55:47;;;;;;;1.73;0.68;;;21.50;34.40;;;;;;21003256;28;20079;-63
2022/09/30 17:05:52;;;;;;;1.88;0.70;;;21.40;34.60;;;;;;21002110;28;20139;-59
2022/09/30 17:15:54;;;;;;;1.40;0.60;;;20.60;34.10;;;;;;20983335;28;20048;-62
2022/09/30 17:25:57;;;;;;;2.58;0.90;;;20.20;34.90;;;;;;21000457;28;20048;-60
2022/09/30 17:36:06;;;;;;;1.50;0.80;;;20.00;35.20;;;;;;21000328;28;20495;-59
2022/09/30 17:46:08;;;;;;;2.97;0.60;;;19.90;35.80;;;;;;20997949;28;20525;-60
2022/09/30 17:56:19;;;;;;;1.23;0.60;;;19.70;36.30;;;;;;20998683;28;20048;-63
2022/09/30 18:06:21;;;;;;;3.10;0.80;;;19.60;36.10;;;;;;20997240;28;20131;-60
2022/09/30 18:16:32;;;;;;;2.00;0.60;;;19.40;36.60;;;;;;20997607;28;20064;-60
2022/09/30 18:26:34;;;;;;;1.35;0.80;;;19.30;37.00;;;;;;20997180;28;20175;-61
2022/09/30 18:36:36;;;;;;;1.52;0.85;;;19.20;37.10;;;;;;20996012;28;20413;-58
2022/09/30 18:46:38;;;;;;;3.55;1.05;;;19.30;36.70;;;;;;20994340;28;20143;-62
2022/09/30 18:56:39;;;;;;;2.33;1.05;;;19.10;37.30;;;;;;20994887;28;20049;-58
2022/09/30 19:06:43;;;;;;;2.38;1.10;;;18.90;37.50;;;;;;20994807;28;20052;-58
2022/09/30 19:16:45;;;;;;;1.92;0.90;;;18.80;37.50;;;;;;20976052;28;20064;-60
2022/09/30 19:26:46;;;;;;;3.70;1.33;;;18.70;37.80;;;;;;20974499;28;20048;-58
2022/09/30 19:36:48;;;;;;;3.15;1.25;;;18.60;38.00;;;;;;20992907;28;20094;-64
2022/09/30 19:46:50;;;;;;;4.53;1.42;;;18.60;38.00;;;;;;20992152;28;20088;-63
2022/09/30 19:56:52;;;;;;;3.15;1.10;;;18.50;37.80;;;;;;20992147;28;20049;-61
2022/09/30 20:06:54;;;;;;;3.40;1.55;;;18.40;38.20;;;;;;20995891;28;20466;-58
2022/09/30 20:16:55;;;;;;;6.35;2.20;;;18.30;38.70;;;;;;21005351;28;20045;-60
2022/09/30 20:26:56;;;;;;;2.47;1.30;;;18.20;39.00;;;;;;21005138;28;20504;-58
2022/09/30 20:36:58;;;;;;;5.07;2.50;;;18.20;39.10;;;;;;21004958;28;20450;-63
2022/09/30 20:47:00;;;;;;;6.22;3.40;;;18.20;39.60;;;;;;21003134;28;20393;-62
2022/09/30 20:57:02;;;;;;;6.00;3.57;;;18.20;39.80;;;;;;21002792;28;20085;-61
2022/09/30 21:07:05;;;;;;;9.48;5.65;;;18.20;39.80;;;;;;21001646;28;20132;-59
2022/09/30 21:17:07;;;;;;;6.07;2.40;;;18.20;39.90;;;;;;21000887;28;20056;-62
2022/09/30 21:27:09;;;;;;;4.05;2.70;;;18.20;40.00;;;;;;21000114;28;20149;-63
2022/09/30 21:37:11;;;;;;;9.45;3.35;;;18.10;40.50;;;;;;20999277;28;20098;-60
2022/09/30 21:47:14;;;;;;;4.88;2.30;;;17.80;41.30;;;;;;20998398;28;20063;-62
2022/09/30 21:57:15;;;;;;;5.22;2.00;;;17.60;41.80;;;;;;20980132;28;20126;-59
2022/09/30 22:07:17;;;;;;;4.70;1.60;;;17.30;42.50;;;;;;20997181;28;20045;-58
2022/09/30 22:17:19;;;;;;;4.50;1.67;;;17.10;43.40;;;;;;20996329;28;20041;-58
2022/09/30 22:27:21;;;;;;;4.93;1.70;;;16.90;44.10;;;;;;20977451;28;20408;-56
2022/09/30 22:47:42;;;;;;;2.80;1.30;;;16.40;45.20;;;;;;20994940;28;20059;-58
2022/09/30 22:57:44;;;;;;;2.75;1.40;;;16.20;45.70;;;;;;20994522;28;20083;-62
2022/09/30 23:07:45;;;;;;;3.65;1.20;;;16.10;46.20;;;;;;20994737;28;20052;-62
2022/09/30 23:17:47;;;;;;;2.38;1.20;;;16.00;46.70;;;;;;20993940;28;20458;-57
2022/09/30 23:27:48;;;;;;;2.28;1.05;;;15.70;47.40;;;;;;20993029;28;20048;-57
2022/09/30 23:37:51;;;;;;;2.90;1.02;;;15.60;47.90;;;;;;20993392;28;20127;-57
2022/09/30 23:47:55;;;;;;;6.60;1.42;;;15.40;48.10;;;;;;20989174;28;20500;-56
2022/09/30 23:57:56;;;;;;;4.90;1.50;;;15.30;48.30;;;;;;21008318;28;20052;-57
